Terminal Aerodrome Forecast
Issued by NWS

Home | Current Version | Previous Version | Text Only | Print | Product List | Glossary On
Versions: 1 2 3 4 5 6 7 8 9 10 11 12 13 14 15 16 17 18 19 20
000
FTUS41 KBGM 051700
TAFITH
TAF
KITH 051727Z 0518/0618 33010G16KT P6SM BKN025
      TEMPO 0518/0522 5SM -SHSN OVC020
     FM060200 30006KT P6SM FEW030 SCT150=

USA.gov is the U.S. government's official web portal to all federal, state and local government web resources and services.